sensor_id;sensor_type;location;lat;lon;timestamp;P1;durP1;ratioP1;P2;durP2;ratioP2
77733;SDS011;66902;41.720;44.796;2024-03-07T00:02:13;38.10;;;31.30;;
77733;SDS011;66902;41.720;44.796;2024-03-07T00:04:47;39.50;;;34.40;;
77733;SDS011;66902;41.720;44.796;2024-03-07T00:07:22;38.00;;;30.90;;
77733;SDS011;66902;41.720;44.796;2024-03-07T00:09:56;38.00;;;33.20;;
77733;SDS011;66902;41.720;44.796;2024-03-07T00:12:30;38.80;;;32.10;;
77733;SDS011;66902;41.720;44.796;2024-03-07T00:15:05;38.40;;;32.40;;
77733;SDS011;66902;41.720;44.796;2024-03-07T00:17:41;38.00;;;30.80;;
77733;SDS011;66902;41.720;44.796;2024-03-07T00:20:15;36.20;;;32.30;;
77733;SDS011;66902;41.720;44.796;2024-03-07T00:22:50;42.80;;;32.90;;
77733;SDS011;66902;41.720;44.796;2024-03-07T00:25:23;38.60;;;32.00;;
77733;SDS011;66902;41.720;44.796;2024-03-07T00:28:00;35.00;;;30.90;;
77733;SDS011;66902;41.720;44.796;2024-03-07T00:30:35;36.70;;;29.70;;
77733;SDS011;66902;41.720;44.796;2024-03-07T00:33:09;29.80;;;26.90;;
77733;SDS011;66902;41.720;44.796;2024-03-07T00:35:44;31.20;;;27.50;;
77733;SDS011;66902;41.720;44.796;2024-03-07T00:38:18;34.30;;;27.90;;
77733;SDS011;66902;41.720;44.796;2024-03-07T00:40:55;31.30;;;25.80;;
77733;SDS011;66902;41.720;44.796;2024-03-07T00:43:29;24.80;;;22.10;;
77733;SDS011;66902;41.720;44.796;2024-03-07T00:46:03;33.10;;;23.30;;
77733;SDS011;66902;41.720;44.796;2024-03-07T00:48:38;27.40;;;24.50;;
77733;SDS011;66902;41.720;44.796;2024-03-07T00:51:12;33.90;;;23.80;;
77733;SDS011;66902;41.720;44.796;2024-03-07T00:53:45;27.50;;;24.20;;
77733;SDS011;66902;41.720;44.796;2024-03-07T00:56:19;28.70;;;23.70;;
77733;SDS011;66902;41.720;44.796;2024-03-07T00:58:53;43.40;;;27.10;;
77733;SDS011;66902;41.720;44.796;2024-03-07T01:01:28;26.80;;;24.00;;
77733;SDS011;66902;41.720;44.796;2024-03-07T01:04:03;32.80;;;24.30;;
77733;SDS011;66902;41.720;44.796;2024-03-07T01:06:37;27.00;;;24.30;;
77733;SDS011;66902;41.720;44.796;2024-03-07T01:09:11;28.30;;;24.20;;
77733;SDS011;66902;41.720;44.796;2024-03-07T01:11:46;28.80;;;24.10;;
77733;SDS011;66902;41.720;44.796;2024-03-07T01:14:20;26.50;;;23.70;;
77733;SDS011;66902;41.720;44.796;2024-03-07T01:16:55;30.70;;;24.20;;
77733;SDS011;66902;41.720;44.796;2024-03-07T01:19:29;28.90;;;25.90;;
77733;SDS011;66902;41.720;44.796;2024-03-07T01:22:04;31.00;;;25.30;;
77733;SDS011;66902;41.720;44.796;2024-03-07T01:24:38;27.40;;;24.10;;
77733;SDS011;66902;41.720;44.796;2024-03-07T01:27:12;26.60;;;23.80;;
77733;SDS011;66902;41.720;44.796;2024-03-07T01:29:46;38.90;;;23.70;;
77733;SDS011;66902;41.720;44.796;2024-03-07T01:32:21;28.80;;;25.70;;
77733;SDS011;66902;41.720;44.796;2024-03-07T01:34:55;28.40;;;24.30;;
77733;SDS011;66902;41.720;44.796;2024-03-07T01:37:30;27.90;;;24.90;;
77733;SDS011;66902;41.720;44.796;2024-03-07T01:40:05;25.80;;;23.10;;
77733;SDS011;66902;41.720;44.796;2024-03-07T01:42:43;25.30;;;22.70;;
77733;SDS011;66902;41.720;44.796;2024-03-07T01:45:42;26.40;;;23.30;;
77733;SDS011;66902;41.720;44.796;2024-03-07T01:48:24;28.10;;;25.10;;
77733;SDS011;66902;41.720;44.796;2024-03-07T01:51:11;28.20;;;25.10;;
77733;SDS011;66902;41.720;44.796;2024-03-07T01:53:45;31.80;;;25.40;;
77733;SDS011;66902;41.720;44.796;2024-03-07T01:56:19;27.00;;;24.20;;
77733;SDS011;66902;41.720;44.796;2024-03-07T01:58:53;31.10;;;26.10;;
77733;SDS011;66902;41.720;44.796;2024-03-07T02:01:28;30.80;;;26.50;;
77733;SDS011;66902;41.720;44.796;2024-03-07T02:04:02;29.80;;;26.60;;
77733;SDS011;66902;41.720;44.796;2024-03-07T02:06:35;31.40;;;28.00;;
77733;SDS011;66902;41.720;44.796;2024-03-07T02:09:10;29.70;;;25.80;;
77733;SDS011;66902;41.720;44.796;2024-03-07T02:11:44;30.60;;;27.50;;
77733;SDS011;66902;41.720;44.796;2024-03-07T02:14:20;31.00;;;27.70;;
77733;SDS011;66902;41.720;44.796;2024-03-07T02:16:55;30.40;;;27.00;;
77733;SDS011;66902;41.720;44.796;2024-03-07T02:19:29;36.10;;;27.70;;
77733;SDS011;66902;41.720;44.796;2024-03-07T02:22:03;29.40;;;26.30;;
77733;SDS011;66902;41.720;44.796;2024-03-07T02:24:38;33.30;;;28.60;;
77733;SDS011;66902;41.720;44.796;2024-03-07T02:27:12;34.10;;;27.20;;
77733;SDS011;66902;41.720;44.796;2024-03-07T02:29:46;32.10;;;26.50;;
77733;SDS011;66902;41.720;44.796;2024-03-07T02:32:21;26.70;;;23.10;;
77733;SDS011;66902;41.720;44.796;2024-03-07T02:34:56;36.90;;;24.50;;
77733;SDS011;66902;41.720;44.796;2024-03-07T02:37:31;30.10;;;25.60;;
77733;SDS011;66902;41.720;44.796;2024-03-07T02:40:06;35.50;;;25.90;;
77733;SDS011;66902;41.720;44.796;2024-03-07T02:42:41;28.30;;;25.40;;
77733;SDS011;66902;41.720;44.796;2024-03-07T02:45:15;33.90;;;25.10;;
77733;SDS011;66902;41.720;44.796;2024-03-07T02:47:49;31.00;;;26.10;;
77733;SDS011;66902;41.720;44.796;2024-03-07T02:50:24;27.80;;;24.80;;
77733;SDS011;66902;41.720;44.796;2024-03-07T02:52:58;29.90;;;26.30;;
77733;SDS011;66902;41.720;44.796;2024-03-07T02:55:33;39.30;;;27.20;;
77733;SDS011;66902;41.720;44.796;2024-03-07T02:58:07;28.90;;;25.40;;
77733;SDS011;66902;41.720;44.796;2024-03-07T03:00:41;31.10;;;27.30;;
77733;SDS011;66902;41.720;44.796;2024-03-07T03:03:15;31.60;;;27.20;;
77733;SDS011;66902;41.720;44.796;2024-03-07T03:05:49;29.20;;;26.10;;
77733;SDS011;66902;41.720;44.796;2024-03-07T03:08:23;30.80;;;26.70;;
77733;SDS011;66902;41.720;44.796;2024-03-07T03:10:58;38.30;;;28.30;;
77733;SDS011;66902;41.720;44.796;2024-03-07T03:13:32;30.90;;;27.10;;
77733;SDS011;66902;41.720;44.796;2024-03-07T03:16:07;41.40;;;29.50;;
77733;SDS011;66902;41.720;44.796;2024-03-07T03:18:41;36.40;;;29.60;;
77733;SDS011;66902;41.720;44.796;2024-03-07T03:21:14;32.60;;;27.90;;
77733;SDS011;66902;41.720;44.796;2024-03-07T03:23:48;27.00;;;24.20;;
77733;SDS011;66902;41.720;44.796;2024-03-07T03:28:57;30.50;;;23.10;;
77733;SDS011;66902;41.720;44.796;2024-03-07T03:31:31;29.70;;;24.20;;
77733;SDS011;66902;41.720;44.796;2024-03-07T03:34:05;33.90;;;24.60;;
77733;SDS011;66902;41.720;44.796;2024-03-07T03:36:40;30.30;;;25.10;;
77733;SDS011;66902;41.720;44.796;2024-03-07T03:39:13;34.80;;;24.00;;
77733;SDS011;66902;41.720;44.796;2024-03-07T03:41:50;30.70;;;24.70;;
77733;SDS011;66902;41.720;44.796;2024-03-07T03:44:23;32.40;;;26.10;;
77733;SDS011;66902;41.720;44.796;2024-03-07T03:46:58;35.70;;;25.20;;
77733;SDS011;66902;41.720;44.796;2024-03-07T03:49:34;37.00;;;26.70;;
77733;SDS011;66902;41.720;44.796;2024-03-07T03:52:08;27.70;;;24.10;;
77733;SDS011;66902;41.720;44.796;2024-03-07T03:54:41;30.40;;;24.30;;
77733;SDS011;66902;41.720;44.796;2024-03-07T03:57:15;37.00;;;25.30;;
77733;SDS011;66902;41.720;44.796;2024-03-07T03:59:49;27.90;;;25.00;;
77733;SDS011;66902;41.720;44.796;2024-03-07T04:02:25;28.40;;;25.10;;
77733;SDS011;66902;41.720;44.796;2024-03-07T04:04:59;27.80;;;24.90;;
77733;SDS011;66902;41.720;44.796;2024-03-07T04:07:34;30.40;;;24.90;;
77733;SDS011;66902;41.720;44.796;2024-03-07T04:10:08;29.40;;;26.40;;
77733;SDS011;66902;41.720;44.796;2024-03-07T04:12:42;28.00;;;25.40;;
77733;SDS011;66902;41.720;44.796;2024-03-07T04:15:18;28.50;;;25.60;;
77733;SDS011;66902;41.720;44.796;2024-03-07T04:17:53;28.20;;;25.40;;
77733;SDS011;66902;41.720;44.796;2024-03-07T04:20:27;37.00;;;26.90;;
77733;SDS011;66902;41.720;44.796;2024-03-07T04:23:00;28.50;;;25.40;;
77733;SDS011;66902;41.720;44.796;2024-03-07T04:25:36;33.20;;;27.80;;
77733;SDS011;66902;41.720;44.796;2024-03-07T04:28:11;29.90;;;26.80;;
77733;SDS011;66902;41.720;44.796;2024-03-07T04:30:47;29.60;;;25.30;;
77733;SDS011;66902;41.720;44.796;2024-03-07T04:33:23;26.20;;;23.50;;
77733;SDS011;66902;41.720;44.796;2024-03-07T04:35:57;27.50;;;24.50;;
77733;SDS011;66902;41.720;44.796;2024-03-07T04:38:33;34.80;;;25.80;;
77733;SDS011;66902;41.720;44.796;2024-03-07T04:41:07;25.30;;;22.50;;
77733;SDS011;66902;41.720;44.796;2024-03-07T04:43:41;30.20;;;27.40;;
77733;SDS011;66902;41.720;44.796;2024-03-07T04:46:15;29.30;;;26.30;;
77733;SDS011;66902;41.720;44.796;2024-03-07T04:48:49;30.50;;;25.50;;
77733;SDS011;66902;41.720;44.796;2024-03-07T04:51:22;32.10;;;26.90;;
77733;SDS011;66902;41.720;44.796;2024-03-07T04:53:56;32.20;;;27.30;;
77733;SDS011;66902;41.720;44.796;2024-03-07T04:56:30;33.00;;;26.80;;
77733;SDS011;66902;41.720;44.796;2024-03-07T04:59:06;27.10;;;23.70;;
77733;SDS011;66902;41.720;44.796;2024-03-07T05:01:48;30.70;;;25.30;;
77733;SDS011;66902;41.720;44.796;2024-03-07T05:04:22;23.90;;;21.70;;
77733;SDS011;66902;41.720;44.796;2024-03-07T05:06:59;21.80;;;19.70;;
77733;SDS011;66902;41.720;44.796;2024-03-07T05:09:33;23.30;;;21.00;;
77733;SDS011;66902;41.720;44.796;2024-03-07T05:12:07;19.10;;;17.10;;
77733;SDS011;66902;41.720;44.796;2024-03-07T05:14:41;20.40;;;15.80;;
77733;SDS011;66902;41.720;44.796;2024-03-07T05:17:15;18.10;;;16.20;;
77733;SDS011;66902;41.720;44.796;2024-03-07T05:19:50;13.70;;;12.10;;
77733;SDS011;66902;41.720;44.796;2024-03-07T05:22:23;12.40;;;10.10;;
77733;SDS011;66902;41.720;44.796;2024-03-07T05:25:00;11.50;;;7.20;;
77733;SDS011;66902;41.720;44.796;2024-03-07T05:27:35;17.90;;;8.20;;
77733;SDS011;66902;41.720;44.796;2024-03-07T05:30:10;6.50;;;5.20;;
77733;SDS011;66902;41.720;44.796;2024-03-07T05:32:45;10.70;;;5.20;;
77733;SDS011;66902;41.720;44.796;2024-03-07T05:35:19;6.20;;;3.40;;
77733;SDS011;66902;41.720;44.796;2024-03-07T05:37:53;3.40;;;2.40;;
77733;SDS011;66902;41.720;44.796;2024-03-07T05:40:29;4.00;;;2.40;;
77733;SDS011;66902;41.720;44.796;2024-03-07T05:43:04;6.20;;;1.70;;
77733;SDS011;66902;41.720;44.796;2024-03-07T05:45:39;3.20;;;1.40;;
77733;SDS011;66902;41.720;44.796;2024-03-07T05:48:15;3.10;;;1.10;;
77733;SDS011;66902;41.720;44.796;2024-03-07T05:50:49;3.20;;;2.30;;
77733;SDS011;66902;41.720;44.796;2024-03-07T05:53:24;6.50;;;1.90;;
77733;SDS011;66902;41.720;44.796;2024-03-07T05:55:58;7.80;;;1.50;;
77733;SDS011;66902;41.720;44.796;2024-03-07T05:58:31;9.30;;;2.70;;
77733;SDS011;66902;41.720;44.796;2024-03-07T06:01:05;4.90;;;2.60;;
77733;SDS011;66902;41.720;44.796;2024-03-07T06:03:40;7.40;;;2.30;;
77733;SDS011;66902;41.720;44.796;2024-03-07T06:06:14;5.80;;;1.70;;
77733;SDS011;66902;41.720;44.796;2024-03-07T06:08:51;4.80;;;2.60;;
77733;SDS011;66902;41.720;44.796;2024-03-07T06:11:25;7.40;;;2.10;;
77733;SDS011;66902;41.720;44.796;2024-03-07T06:13:58;12.10;;;2.50;;
77733;SDS011;66902;41.720;44.796;2024-03-07T06:16:33;8.70;;;2.20;;
77733;SDS011;66902;41.720;44.796;2024-03-07T06:19:09;4.80;;;1.60;;
77733;SDS011;66902;41.720;44.796;2024-03-07T06:21:42;6.70;;;1.90;;
77733;SDS011;66902;41.720;44.796;2024-03-07T06:24:16;9.50;;;1.40;;
77733;SDS011;66902;41.720;44.796;2024-03-07T06:26:52;3.20;;;1.30;;
77733;SDS011;66902;41.720;44.796;2024-03-07T06:29:33;3.90;;;1.00;;
77733;SDS011;66902;41.720;44.796;2024-03-07T06:32:07;4.10;;;1.20;;
77733;SDS011;66902;41.720;44.796;2024-03-07T06:34:41;5.20;;;1.40;;
77733;SDS011;66902;41.720;44.796;2024-03-07T06:37:15;5.90;;;1.70;;
77733;SDS011;66902;41.720;44.796;2024-03-07T06:39:49;9.30;;;2.10;;
77733;SDS011;66902;41.720;44.796;2024-03-07T06:42:22;5.20;;;2.00;;
77733;SDS011;66902;41.720;44.796;2024-03-07T06:44:56;2.10;;;0.80;;
77733;SDS011;66902;41.720;44.796;2024-03-07T06:47:30;1.20;;;0.70;;
77733;SDS011;66902;41.720;44.796;2024-03-07T06:50:04;3.40;;;1.60;;
77733;SDS011;66902;41.720;44.796;2024-03-07T06:52:43;4.80;;;1.40;;
77733;SDS011;66902;41.720;44.796;2024-03-07T06:55:18;3.20;;;1.50;;
77733;SDS011;66902;41.720;44.796;2024-03-07T06:57:52;2.80;;;1.20;;
77733;SDS011;66902;41.720;44.796;2024-03-07T07:00:26;2.80;;;1.20;;
77733;SDS011;66902;41.720;44.796;2024-03-07T07:03:00;7.00;;;1.80;;
77733;SDS011;66902;41.720;44.796;2024-03-07T07:05:35;2.40;;;1.60;;
77733;SDS011;66902;41.720;44.796;2024-03-07T07:08:08;3.60;;;2.00;;
77733;SDS011;66902;41.720;44.796;2024-03-07T07:10:43;2.70;;;1.30;;
77733;SDS011;66902;41.720;44.796;2024-03-07T07:13:17;2.20;;;1.60;;
77733;SDS011;66902;41.720;44.796;2024-03-07T07:15:50;2.20;;;1.60;;
77733;SDS011;66902;41.720;44.796;2024-03-07T07:18:25;7.30;;;2.30;;
77733;SDS011;66902;41.720;44.796;2024-03-07T07:20:59;3.00;;;1.40;;
77733;SDS011;66902;41.720;44.796;2024-03-07T07:23:34;3.90;;;1.00;;
77733;SDS011;66902;41.720;44.796;2024-03-07T07:26:08;2.30;;;1.80;;
77733;SDS011;66902;41.720;44.796;2024-03-07T07:28:42;4.10;;;1.70;;
77733;SDS011;66902;41.720;44.796;2024-03-07T07:31:16;1.90;;;1.50;;
77733;SDS011;66902;41.720;44.796;2024-03-07T07:33:50;2.40;;;1.50;;
77733;SDS011;66902;41.720;44.796;2024-03-07T07:36:24;4.50;;;1.60;;
77733;SDS011;66902;41.720;44.796;2024-03-07T07:39:00;2.00;;;0.90;;
77733;SDS011;66902;41.720;44.796;2024-03-07T07:41:34;1.80;;;1.30;;
77733;SDS011;66902;41.720;44.796;2024-03-07T07:44:08;3.30;;;1.20;;
77733;SDS011;66902;41.720;44.796;2024-03-07T07:46:42;2.10;;;1.40;;
77733;SDS011;66902;41.720;44.796;2024-03-07T07:49:15;4.20;;;1.70;;
77733;SDS011;66902;41.720;44.796;2024-03-07T07:51:49;2.30;;;1.40;;
77733;SDS011;66902;41.720;44.796;2024-03-07T07:54:24;2.20;;;1.50;;
77733;SDS011;66902;41.720;44.796;2024-03-07T07:56:57;4.20;;;1.30;;
77733;SDS011;66902;41.720;44.796;2024-03-07T07:59:31;2.50;;;1.70;;
77733;SDS011;66902;41.720;44.796;2024-03-07T08:02:05;3.10;;;2.10;;
77733;SDS011;66902;41.720;44.796;2024-03-07T08:04:39;5.90;;;2.40;;
77733;SDS011;66902;41.720;44.796;2024-03-07T08:07:12;3.20;;;1.90;;
77733;SDS011;66902;41.720;44.796;2024-03-07T08:09:46;4.00;;;1.90;;
77733;SDS011;66902;41.720;44.796;2024-03-07T08:12:19;5.20;;;1.90;;
77733;SDS011;66902;41.720;44.796;2024-03-07T08:14:53;12.10;;;3.10;;
77733;SDS011;66902;41.720;44.796;2024-03-07T08:17:26;10.10;;;3.10;;
77733;SDS011;66902;41.720;44.796;2024-03-07T08:20:01;7.20;;;3.00;;
77733;SDS011;66902;41.720;44.796;2024-03-07T08:22:41;7.40;;;2.80;;
77733;SDS011;66902;41.720;44.796;2024-03-07T08:25:15;1.80;;;1.40;;
77733;SDS011;66902;41.720;44.796;2024-03-07T08:27:49;6.70;;;1.70;;
77733;SDS011;66902;41.720;44.796;2024-03-07T08:30:24;4.90;;;1.70;;
77733;SDS011;66902;41.720;44.796;2024-03-07T08:32:59;1.70;;;0.90;;
77733;SDS011;66902;41.720;44.796;2024-03-07T08:35:36;2.70;;;1.30;;
77733;SDS011;66902;41.720;44.796;2024-03-07T08:38:10;2.50;;;1.10;;
77733;SDS011;66902;41.720;44.796;2024-03-07T08:40:44;2.70;;;1.00;;
77733;SDS011;66902;41.720;44.796;2024-03-07T08:43:19;2.20;;;1.30;;
77733;SDS011;66902;41.720;44.796;2024-03-07T08:45:52;5.60;;;1.50;;
77733;SDS011;66902;41.720;44.796;2024-03-07T08:48:26;5.00;;;1.40;;
77733;SDS011;66902;41.720;44.796;2024-03-07T08:51:00;1.60;;;0.80;;
77733;SDS011;66902;41.720;44.796;2024-03-07T08:53:34;5.80;;;3.50;;
77733;SDS011;66902;41.720;44.796;2024-03-07T08:56:08;3.70;;;2.10;;
77733;SDS011;66902;41.720;44.796;2024-03-07T08:58:44;2.50;;;1.30;;
77733;SDS011;66902;41.720;44.796;2024-03-07T09:01:18;2.50;;;1.40;;
77733;SDS011;66902;41.720;44.796;2024-03-07T09:03:51;7.50;;;2.50;;
77733;SDS011;66902;41.720;44.796;2024-03-07T09:06:27;5.10;;;3.70;;
77733;SDS011;66902;41.720;44.796;2024-03-07T09:09:02;5.00;;;3.70;;
77733;SDS011;66902;41.720;44.796;2024-03-07T09:11:40;7.10;;;4.20;;
77733;SDS011;66902;41.720;44.796;2024-03-07T09:14:13;7.90;;;3.60;;
77733;SDS011;66902;41.720;44.796;2024-03-07T09:16:47;5.10;;;1.60;;
77733;SDS011;66902;41.720;44.796;2024-03-07T09:19:22;1.60;;;0.70;;
77733;SDS011;66902;41.720;44.796;2024-03-07T09:21:57;7.00;;;1.40;;
77733;SDS011;66902;41.720;44.796;2024-03-07T09:24:33;0.80;;;0.40;;
77733;SDS011;66902;41.720;44.796;2024-03-07T09:27:08;7.50;;;0.80;;
77733;SDS011;66902;41.720;44.796;2024-03-07T09:29:44;5.70;;;0.90;;
77733;SDS011;66902;41.720;44.796;2024-03-07T09:32:19;3.40;;;1.10;;
77733;SDS011;66902;41.720;44.796;2024-03-07T09:34:54;2.10;;;0.50;;
77733;SDS011;66902;41.720;44.796;2024-03-07T09:37:27;0.60;;;0.40;;
77733;SDS011;66902;41.720;44.796;2024-03-07T09:40:01;4.50;;;0.50;;
77733;SDS011;66902;41.720;44.796;2024-03-07T09:42:36;1.10;;;0.50;;
77733;SDS011;66902;41.720;44.796;2024-03-07T09:45:15;0.80;;;0.40;;
77733;SDS011;66902;41.720;44.796;2024-03-07T09:47:51;4.40;;;0.60;;
77733;SDS011;66902;41.720;44.796;2024-03-07T09:50:28;5.70;;;0.60;;
77733;SDS011;66902;41.720;44.796;2024-03-07T09:55:34;2.40;;;0.80;;
77733;SDS011;66902;41.720;44.796;2024-03-07T09:58:08;2.60;;;1.20;;
77733;SDS011;66902;41.720;44.796;2024-03-07T10:00:44;2.50;;;0.70;;
77733;SDS011;66902;41.720;44.796;2024-03-07T10:05:53;3.00;;;0.70;;
77733;SDS011;66902;41.720;44.796;2024-03-07T10:08:27;1.10;;;0.50;;
77733;SDS011;66902;41.720;44.796;2024-03-07T10:11:02;1.80;;;1.00;;
77733;SDS011;66902;41.720;44.796;2024-03-07T10:13:35;6.50;;;1.00;;
77733;SDS011;66902;41.720;44.796;2024-03-07T10:16:11;1.50;;;0.80;;
77733;SDS011;66902;41.720;44.796;2024-03-07T10:18:44;5.10;;;1.00;;
77733;SDS011;66902;41.720;44.796;2024-03-07T10:21:20;7.10;;;1.10;;
77733;SDS011;66902;41.720;44.796;2024-03-07T10:24:05;3.60;;;0.90;;
77733;SDS011;66902;41.720;44.796;2024-03-07T10:26:41;3.70;;;0.60;;
77733;SDS011;66902;41.720;44.796;2024-03-07T10:29:17;4.60;;;0.80;;
77733;SDS011;66902;41.720;44.796;2024-03-07T10:31:52;0.90;;;0.60;;
77733;SDS011;66902;41.720;44.796;2024-03-07T10:34:40;3.40;;;1.50;;
77733;SDS011;66902;41.720;44.796;2024-03-07T10:37:18;4.50;;;1.30;;
77733;SDS011;66902;41.720;44.796;2024-03-07T10:39:51;2.20;;;0.60;;
77733;SDS011;66902;41.720;44.796;2024-03-07T10:42:25;3.90;;;0.60;;
77733;SDS011;66902;41.720;44.796;2024-03-07T10:45:04;2.00;;;0.90;;
77733;SDS011;66902;41.720;44.796;2024-03-07T10:47:41;2.50;;;1.20;;
77733;SDS011;66902;41.720;44.796;2024-03-07T10:50:19;1.60;;;0.60;;
77733;SDS011;66902;41.720;44.796;2024-03-07T10:52:58;1.80;;;0.90;;
77733;SDS011;66902;41.720;44.796;2024-03-07T10:55:37;3.00;;;0.90;;
77733;SDS011;66902;41.720;44.796;2024-03-07T10:58:23;1.80;;;1.10;;
77733;SDS011;66902;41.720;44.796;2024-03-07T11:01:01;3.50;;;0.50;;
77733;SDS011;66902;41.720;44.796;2024-03-07T11:03:36;5.10;;;1.30;;
77733;SDS011;66902;41.720;44.796;2024-03-07T11:06:11;1.80;;;0.80;;
77733;SDS011;66902;41.720;44.796;2024-03-07T11:08:48;1.10;;;0.50;;
77733;SDS011;66902;41.720;44.796;2024-03-07T11:11:22;4.00;;;0.80;;
77733;SDS011;66902;41.720;44.796;2024-03-07T11:13:56;1.70;;;0.60;;
77733;SDS011;66902;41.720;44.796;2024-03-07T11:16:32;5.90;;;0.60;;
77733;SDS011;66902;41.720;44.796;2024-03-07T11:19:24;3.80;;;0.60;;
77733;SDS011;66902;41.720;44.796;2024-03-07T11:22:00;3.10;;;0.60;;
77733;SDS011;66902;41.720;44.796;2024-03-07T11:24:48;0.30;;;0.20;;
77733;SDS011;66902;41.720;44.796;2024-03-07T11:27:38;4.40;;;0.90;;
77733;SDS011;66902;41.720;44.796;2024-03-07T11:30:13;3.30;;;0.90;;
77733;SDS011;66902;41.720;44.796;2024-03-07T11:32:51;1.00;;;0.50;;
77733;SDS011;66902;41.720;44.796;2024-03-07T11:35:32;0.40;;;0.40;;
77733;SDS011;66902;41.720;44.796;2024-03-07T11:38:07;2.10;;;0.50;;
77733;SDS011;66902;41.720;44.796;2024-03-07T11:40:48;1.60;;;0.90;;
77733;SDS011;66902;41.720;44.796;2024-03-07T11:43:28;0.50;;;0.20;;
77733;SDS011;66902;41.720;44.796;2024-03-07T11:46:01;1.80;;;0.60;;
77733;SDS011;66902;41.720;44.796;2024-03-07T11:48:41;0.70;;;0.30;;
77733;SDS011;66902;41.720;44.796;2024-03-07T11:51:17;1.70;;;0.70;;
77733;SDS011;66902;41.720;44.796;2024-03-07T11:53:57;1.60;;;0.70;;
77733;SDS011;66902;41.720;44.796;2024-03-07T11:56:31;2.60;;;0.40;;
77733;SDS011;66902;41.720;44.796;2024-03-07T11:59:05;2.60;;;0.30;;
77733;SDS011;66902;41.720;44.796;2024-03-07T12:01:43;3.80;;;0.50;;
77733;SDS011;66902;41.720;44.796;2024-03-07T12:04:16;1.30;;;0.40;;
77733;SDS011;66902;41.720;44.796;2024-03-07T12:06:53;8.50;;;0.60;;
77733;SDS011;66902;41.720;44.796;2024-03-07T12:09:27;2.00;;;0.50;;
77733;SDS011;66902;41.720;44.796;2024-03-07T12:12:01;5.40;;;1.10;;
77733;SDS011;66902;41.720;44.796;2024-03-07T12:14:37;2.70;;;0.60;;
77733;SDS011;66902;41.720;44.796;2024-03-07T12:17:10;1.70;;;0.50;;
77733;SDS011;66902;41.720;44.796;2024-03-07T12:19:44;3.10;;;0.60;;
77733;SDS011;66902;41.720;44.796;2024-03-07T12:22:21;2.20;;;0.60;;
77733;SDS011;66902;41.720;44.796;2024-03-07T12:25:02;3.70;;;0.30;;
77733;SDS011;66902;41.720;44.796;2024-03-07T12:27:38;2.40;;;1.00;;
77733;SDS011;66902;41.720;44.796;2024-03-07T12:30:16;1.00;;;0.40;;
77733;SDS011;66902;41.720;44.796;2024-03-07T12:32:57;1.70;;;0.60;;
77733;SDS011;66902;41.720;44.796;2024-03-07T12:35:31;1.60;;;0.40;;
77733;SDS011;66902;41.720;44.796;2024-03-07T12:38:06;6.40;;;1.10;;
77733;SDS011;66902;41.720;44.796;2024-03-07T12:40:41;3.40;;;0.40;;
77733;SDS011;66902;41.720;44.796;2024-03-07T12:43:16;4.10;;;0.50;;
77733;SDS011;66902;41.720;44.796;2024-03-07T12:45:51;0.80;;;0.50;;
77733;SDS011;66902;41.720;44.796;2024-03-07T12:48:25;6.30;;;0.50;;
77733;SDS011;66902;41.720;44.796;2024-03-07T12:50:58;9.10;;;0.60;;
77733;SDS011;66902;41.720;44.796;2024-03-07T12:53:32;3.40;;;0.60;;
77733;SDS011;66902;41.720;44.796;2024-03-07T12:56:07;2.40;;;0.60;;
77733;SDS011;66902;41.720;44.796;2024-03-07T12:58:41;1.80;;;0.50;;
77733;SDS011;66902;41.720;44.796;2024-03-07T13:01:17;2.10;;;0.80;;
77733;SDS011;66902;41.720;44.796;2024-03-07T13:03:51;0.40;;;0.30;;
77733;SDS011;66902;41.720;44.796;2024-03-07T13:06:25;1.60;;;0.70;;
77733;SDS011;66902;41.720;44.796;2024-03-07T13:08:59;1.80;;;0.70;;
77733;SDS011;66902;41.720;44.796;2024-03-07T13:11:33;1.10;;;0.70;;
77733;SDS011;66902;41.720;44.796;2024-03-07T13:14:11;3.00;;;1.00;;
77733;SDS011;66902;41.720;44.796;2024-03-07T13:16:45;4.70;;;0.40;;
77733;SDS011;66902;41.720;44.796;2024-03-07T13:19:20;3.70;;;0.80;;
77733;SDS011;66902;41.720;44.796;2024-03-07T13:21:56;3.90;;;1.10;;
77733;SDS011;66902;41.720;44.796;2024-03-07T13:24:30;2.90;;;0.80;;
77733;SDS011;66902;41.720;44.796;2024-03-07T13:27:05;1.50;;;0.70;;
77733;SDS011;66902;41.720;44.796;2024-03-07T13:29:41;6.00;;;0.60;;
77733;SDS011;66902;41.720;44.796;2024-03-07T13:32:16;1.60;;;0.80;;
77733;SDS011;66902;41.720;44.796;2024-03-07T13:34:50;2.60;;;0.40;;
77733;SDS011;66902;41.720;44.796;2024-03-07T13:37:23;4.50;;;1.10;;
77733;SDS011;66902;41.720;44.796;2024-03-07T13:39:56;6.90;;;0.40;;
77733;SDS011;66902;41.720;44.796;2024-03-07T13:42:51;4.30;;;0.60;;
77733;SDS011;66902;41.720;44.796;2024-03-07T13:45:26;3.30;;;0.50;;
77733;SDS011;66902;41.720;44.796;2024-03-07T13:48:01;2.20;;;1.10;;
77733;SDS011;66902;41.720;44.796;2024-03-07T13:50:35;4.70;;;1.00;;
77733;SDS011;66902;41.720;44.796;2024-03-07T13:53:14;2.40;;;0.80;;
77733;SDS011;66902;41.720;44.796;2024-03-07T13:56:06;1.80;;;0.70;;
77733;SDS011;66902;41.720;44.796;2024-03-07T13:59:17;2.30;;;0.80;;
77733;SDS011;66902;41.720;44.796;2024-03-07T14:05:12;3.10;;;1.20;;
77733;SDS011;66902;41.720;44.796;2024-03-07T14:08:15;1.90;;;0.50;;
77733;SDS011;66902;41.720;44.796;2024-03-07T14:14:49;1.40;;;0.70;;
77733;SDS011;66902;41.720;44.796;2024-03-07T14:17:52;3.10;;;0.50;;
77733;SDS011;66902;41.720;44.796;2024-03-07T14:20:47;3.40;;;0.80;;
77733;SDS011;66902;41.720;44.796;2024-03-07T14:23:38;2.50;;;0.70;;
77733;SDS011;66902;41.720;44.796;2024-03-07T14:26:58;1.60;;;0.70;;
77733;SDS011;66902;41.720;44.796;2024-03-07T14:29:43;6.00;;;1.40;;
77733;SDS011;66902;41.720;44.796;2024-03-07T14:32:19;1.30;;;0.70;;
77733;SDS011;66902;41.720;44.796;2024-03-07T14:34:57;2.60;;;0.90;;
77733;SDS011;66902;41.720;44.796;2024-03-07T14:37:37;2.20;;;0.80;;
77733;SDS011;66902;41.720;44.796;2024-03-07T14:40:16;4.90;;;1.00;;
77733;SDS011;66902;41.720;44.796;2024-03-07T14:42:50;1.80;;;0.70;;
77733;SDS011;66902;41.720;44.796;2024-03-07T14:45:29;3.10;;;1.30;;
77733;SDS011;66902;41.720;44.796;2024-03-07T14:48:07;2.60;;;0.80;;
77733;SDS011;66902;41.720;44.796;2024-03-07T14:50:45;1.50;;;0.90;;
77733;SDS011;66902;41.720;44.796;2024-03-07T14:53:18;1.10;;;0.50;;
77733;SDS011;66902;41.720;44.796;2024-03-07T14:55:53;2.30;;;0.90;;
77733;SDS011;66902;41.720;44.796;2024-03-07T14:58:28;1.10;;;0.70;;
77733;SDS011;66902;41.720;44.796;2024-03-07T15:01:02;1.20;;;0.60;;
77733;SDS011;66902;41.720;44.796;2024-03-07T15:03:36;1.80;;;0.70;;
77733;SDS011;66902;41.720;44.796;2024-03-07T15:06:11;2.70;;;0.90;;
77733;SDS011;66902;41.720;44.796;2024-03-07T15:08:46;1.30;;;0.60;;
77733;SDS011;66902;41.720;44.796;2024-03-07T15:11:20;2.10;;;0.80;;
77733;SDS011;66902;41.720;44.796;2024-03-07T15:13:57;6.50;;;0.70;;
77733;SDS011;66902;41.720;44.796;2024-03-07T15:19:08;2.70;;;0.60;;
77733;SDS011;66902;41.720;44.796;2024-03-07T15:21:42;3.20;;;0.90;;
77733;SDS011;66902;41.720;44.796;2024-03-07T15:24:15;2.60;;;1.10;;
77733;SDS011;66902;41.720;44.796;2024-03-07T15:26:51;3.30;;;1.00;;
77733;SDS011;66902;41.720;44.796;2024-03-07T15:29:27;2.50;;;0.70;;
77733;SDS011;66902;41.720;44.796;2024-03-07T15:32:01;3.30;;;0.60;;
77733;SDS011;66902;41.720;44.796;2024-03-07T15:34:39;7.50;;;0.70;;